createdAt,value
2023-01-29T00:00:58.530Z,78.04
2023-01-29T00:01:58.542Z,78.35
2023-01-29T00:02:58.554Z,78.25
2023-01-29T00:03:58.505Z,78.14
2023-01-29T00:04:59.183Z,78.35
2023-01-29T00:05:58.461Z,78.77
2023-01-29T00:06:58.469Z,78.88
2023-01-29T00:07:58.461Z,78.77
2023-01-29T00:08:58.440Z,78.67
2023-01-29T00:09:58.433Z,78.67
2023-01-29T00:10:58.396Z,78.88
2023-01-29T00:11:58.397Z,78.98
2023-01-29T00:12:58.379Z,79.29
2023-01-29T00:13:58.376Z,78.98
2023-01-29T00:14:58.344Z,78.98
2023-01-29T00:15:58.332Z,79.08
2023-01-29T00:16:58.398Z,79.08
2023-01-29T00:17:58.307Z,78.98
2023-01-29T00:18:58.314Z,78.67
2023-01-29T00:19:58.281Z,78.46
2023-01-29T00:20:58.270Z,78.25
2023-01-29T00:21:58.264Z,78.14
2023-01-29T00:22:58.265Z,78.14
2023-01-29T00:23:58.288Z,78.14
2023-01-29T00:24:58.221Z,78.00
2023-01-29T00:25:58.209Z,77.90
2023-01-29T00:26:58.197Z,77.83
2023-01-29T00:27:58.184Z,77.83
2023-01-29T00:28:58.186Z,77.73
2023-01-29T00:29:58.158Z,77.94
2023-01-29T00:30:58.297Z,77.83
2023-01-29T00:31:58.267Z,77.94
2023-01-29T00:32:58.117Z,77.73
2023-01-29T00:33:58.123Z,78.35
2023-01-29T00:34:58.090Z,78.46
2023-01-29T00:35:58.087Z,78.35
2023-01-29T00:36:58.067Z,78.67
2023-01-29T00:37:58.059Z,78.25
2023-01-29T00:38:58.076Z,78.25
2023-01-29T00:39:58.032Z,78.46
2023-01-29T00:40:58.019Z,78.35
2023-01-29T00:41:58.011Z,78.25
2023-01-29T00:42:57.991Z,78.46
2023-01-29T00:43:58.002Z,78.67
2023-01-29T00:44:57.967Z,78.77
2023-01-29T00:45:57.954Z,78.77
2023-01-29T00:46:57.987Z,78.67
2023-01-29T00:47:57.927Z,78.98
2023-01-29T00:48:59.559Z,78.67
2023-01-29T00:49:57.900Z,78.56
2023-01-29T00:50:57.889Z,78.46
2023-01-29T00:51:57.872Z,78.35
2023-01-29T00:52:57.859Z,78.77
2023-01-29T00:53:57.872Z,78.35
2023-01-29T00:54:57.863Z,78.25
2023-01-29T00:55:57.827Z,78.25
2023-01-29T00:56:57.808Z,77.83
2023-01-29T00:57:57.797Z,78.04
2023-01-29T00:58:57.806Z,77.73
2023-01-29T00:59:57.783Z,77.83
2023-01-29T01:00:57.806Z,77.45
2023-01-29T01:01:57.773Z,77.45
2023-01-29T01:02:57.750Z,77.51
2023-01-29T01:03:57.773Z,77.51
2023-01-29T01:04:57.726Z,77.31
2023-01-29T01:05:57.695Z,77.31
2023-01-29T01:06:57.683Z,77.10
2023-01-29T01:07:57.672Z,77.10
2023-01-29T01:08:57.668Z,76.79
2023-01-29T01:09:57.653Z,77.10
2023-01-29T01:10:57.653Z,77.10
2023-01-29T01:11:57.627Z,77.51
2023-01-29T01:12:57.613Z,77.73
2023-01-29T01:13:57.615Z,77.73
2023-01-29T01:14:57.576Z,77.62
2023-01-29T01:15:57.607Z,77.51
2023-01-29T01:16:57.562Z,77.41
2023-01-29T01:17:57.552Z,77.20
2023-01-29T01:18:57.545Z,77.51
2023-01-29T01:19:57.517Z,77.73
2023-01-29T01:20:57.502Z,77.62
2023-01-29T01:21:57.498Z,77.31
2023-01-29T01:22:57.485Z,77.41
2023-01-29T01:23:57.512Z,77.41
2023-01-29T01:24:57.474Z,77.20
2023-01-29T01:25:57.436Z,77.00
2023-01-29T01:26:57.446Z,76.89
2023-01-29T01:27:57.430Z,78.18
2023-01-29T01:28:57.442Z,79.02
2023-01-29T01:29:57.392Z,78.91
2023-01-29T01:30:57.443Z,78.60
2023-01-29T01:31:57.412Z,79.16
2023-01-29T01:32:57.367Z,79.26
2023-01-29T01:33:57.345Z,79.47
2023-01-29T01:34:57.347Z,79.47
2023-01-29T01:35:57.316Z,79.44
2023-01-29T01:36:57.298Z,79.22
2023-01-29T01:37:57.294Z,79.54
2023-01-29T01:38:57.276Z,79.54
2023-01-29T01:39:57.279Z,78.85
2023-01-29T01:40:57.253Z,78.63
2023-01-29T01:41:57.236Z,78.81
2023-01-29T01:42:57.258Z,78.91
2023-01-29T01:43:57.213Z,79.54
2023-01-29T01:44:57.220Z,79.33
2023-01-29T01:45:57.259Z,78.74
2023-01-29T01:46:57.175Z,78.39
2023-01-29T01:47:57.159Z,78.39
2023-01-29T01:48:57.152Z,78.49
2023-01-29T01:49:57.149Z,78.39
2023-01-29T01:50:57.134Z,78.49
2023-01-29T01:51:57.111Z,78.08
2023-01-29T01:52:57.092Z,78.18
2023-01-29T01:53:57.085Z,78.08
2023-01-29T01:54:57.087Z,78.28
2023-01-29T01:55:57.055Z,78.53
2023-01-29T01:56:57.051Z,78.42
2023-01-29T01:57:57.038Z,78.11
2023-01-29T01:58:57.049Z,78.11
2023-01-29T01:59:57.061Z,78.11
2023-01-29T02:00:57.038Z,78.11
2023-01-29T02:01:57.001Z,78.22
2023-01-29T02:02:56.967Z,78.22
2023-01-29T02:03:56.957Z,78.22
2023-01-29T02:04:56.972Z,77.90
2023-01-29T02:05:56.934Z,78.74
2023-01-29T02:06:56.922Z,78.42
2023-01-29T02:07:56.906Z,78.36
2023-01-29T02:08:56.898Z,78.77
2023-01-29T02:09:56.887Z,78.77
2023-01-29T02:10:56.891Z,78.46
2023-01-29T02:11:56.864Z,78.77
2023-01-29T02:12:56.837Z,78.25
2023-01-29T02:13:56.827Z,78.25
2023-01-29T02:14:56.837Z,78.25
2023-01-29T02:15:56.817Z,78.56
2023-01-29T02:16:56.790Z,78.77
2023-01-29T02:17:56.790Z,78.99
2023-01-29T02:18:56.774Z,79.50
2023-01-29T02:19:56.751Z,79.72
2023-01-29T02:20:56.760Z,80.07
2023-01-29T02:21:56.727Z,80.17
2023-01-29T02:22:56.714Z,80.17
2023-01-29T02:23:56.808Z,79.96
2023-01-29T02:24:56.689Z,80.07
2023-01-29T02:25:56.694Z,80.38
2023-01-29T02:26:56.665Z,80.17
2023-01-29T02:27:56.650Z,79.96
2023-01-29T02:28:56.646Z,79.96
2023-01-29T02:29:56.628Z,79.96
2023-01-29T02:30:56.671Z,80.07
2023-01-29T02:31:56.609Z,79.75
2023-01-29T02:32:56.585Z,79.54
2023-01-29T02:33:56.581Z,79.61
2023-01-29T02:34:56.562Z,79.86
2023-01-29T02:35:56.585Z,79.54
2023-01-29T02:36:56.540Z,79.19
2023-01-29T02:37:56.525Z,79.13
2023-01-29T02:38:56.507Z,79.19
2023-01-29T02:39:56.540Z,79.19
2023-01-29T02:40:56.508Z,78.99
2023-01-29T02:41:56.476Z,78.77
2023-01-29T02:42:56.461Z,78.77
2023-01-29T02:43:56.455Z,78.88
2023-01-29T02:44:56.435Z,78.88
2023-01-29T02:45:56.472Z,78.77
2023-01-29T02:46:56.598Z,79.30
2023-01-29T02:47:56.399Z,79.72
2023-01-29T02:48:56.388Z,79.72
2023-01-29T02:49:56.390Z,79.93
2023-01-29T02:50:56.381Z,79.96
2023-01-29T02:51:56.354Z,80.38
2023-01-29T02:52:56.361Z,80.13
2023-01-29T02:53:56.338Z,80.03
2023-01-29T02:54:56.315Z,80.24
2023-01-29T02:55:56.313Z,80.66
2023-01-29T02:56:56.285Z,81.07
2023-01-29T02:57:56.285Z,81.49
2023-01-29T02:58:56.255Z,81.92
2023-01-29T02:59:56.251Z,81.81
2023-01-29T03:00:56.348Z,81.70
2023-01-29T03:01:57.145Z,81.70
2023-01-29T03:02:56.237Z,81.70
2023-01-29T03:03:56.200Z,81.70
2023-01-29T03:04:56.182Z,81.60
2023-01-29T03:05:56.193Z,81.60
2023-01-29T03:06:56.155Z,81.60
2023-01-29T03:07:56.147Z,81.46
2023-01-29T03:08:56.134Z,81.49
2023-01-29T03:09:56.120Z,81.39
2023-01-29T03:10:56.116Z,81.49
2023-01-29T03:11:56.098Z,81.46
2023-01-29T03:12:56.077Z,81.46
2023-01-29T03:13:56.068Z,81.56
2023-01-29T03:14:56.061Z,81.67
2023-01-29T03:15:56.074Z,81.67
2023-01-29T03:16:56.025Z,81.77
2023-01-29T03:17:56.022Z,81.77
2023-01-29T03:18:56.050Z,81.77
2023-01-29T03:19:55.995Z,81.98
2023-01-29T03:20:55.982Z,81.60
2023-01-29T03:21:55.995Z,82.33
2023-01-29T03:22:55.951Z,83.52
2023-01-29T03:23:55.983Z,83.77
2023-01-29T03:24:55.941Z,83.87
2023-01-29T03:25:55.918Z,84.08
2023-01-29T03:26:55.921Z,84.29
2023-01-29T03:27:55.897Z,84.19
2023-01-29T03:28:55.908Z,84.08
2023-01-29T03:29:55.864Z,84.19
2023-01-29T03:30:55.904Z,84.29
2023-01-29T03:31:55.966Z,84.36
2023-01-29T03:32:55.824Z,84.05
2023-01-29T03:33:55.818Z,83.83
2023-01-29T03:34:55.816Z,83.62
2023-01-29T03:35:55.791Z,83.73
2023-01-29T03:36:55.796Z,83.83
2023-01-29T03:37:55.763Z,83.62
2023-01-29T03:38:55.756Z,83.10
2023-01-29T03:39:55.741Z,83.00
2023-01-29T03:40:55.737Z,83.10
2023-01-29T03:41:55.727Z,83.00
2023-01-29T03:42:55.717Z,83.00
2023-01-29T03:43:55.686Z,83.31
2023-01-29T03:44:55.676Z,83.42
2023-01-29T03:45:55.679Z,83.10
2023-01-29T03:46:55.663Z,82.79
2023-01-29T03:47:55.640Z,82.79
2023-01-29T03:48:55.632Z,82.68
2023-01-29T03:49:55.611Z,82.89
2023-01-29T03:50:55.613Z,84.05
2023-01-29T03:51:55.618Z,85.13
2023-01-29T03:52:55.572Z,85.44
2023-01-29T03:53:55.557Z,85.55
2023-01-29T03:54:55.547Z,85.65
2023-01-29T03:55:55.530Z,85.97
2023-01-29T03:56:55.551Z,86.18
2023-01-29T03:57:55.510Z,86.49
2023-01-29T03:58:55.504Z,86.80
2023-01-29T03:59:55.482Z,86.74
2023-01-29T04:00:55.470Z,86.28
2023-01-29T04:01:55.468Z,85.97
2023-01-29T04:02:55.458Z,85.75
2023-01-29T04:03:55.512Z,85.75
2023-01-29T04:04:55.422Z,85.86
2023-01-29T04:05:55.440Z,85.75
2023-01-29T04:06:55.414Z,85.55
2023-01-29T04:07:55.379Z,85.44
2023-01-29T04:08:55.373Z,85.55
2023-01-29T04:09:55.359Z,85.65
2023-01-29T04:10:55.345Z,85.55
2023-01-29T04:11:55.354Z,85.86
2023-01-29T04:12:55.328Z,85.86
2023-01-29T04:13:55.313Z,86.00
2023-01-29T04:14:55.291Z,85.65
2023-01-29T04:15:55.278Z,85.34
2023-01-29T04:16:55.292Z,84.81
2023-01-29T04:17:55.254Z,84.81
2023-01-29T04:18:55.245Z,83.03
2023-01-29T04:19:55.237Z,82.93
2023-01-29T04:20:55.219Z,82.93
2023-01-29T04:21:55.231Z,82.82
2023-01-29T04:22:55.193Z,82.89
2023-01-29T04:23:55.255Z,82.68
2023-01-29T04:24:55.212Z,82.47
2023-01-29T04:25:55.158Z,82.68
2023-01-29T04:26:55.142Z,83.73
2023-01-29T04:27:55.146Z,85.24
2023-01-29T04:28:55.122Z,86.95
2023-01-29T04:29:55.105Z,87.26
2023-01-29T04:30:55.184Z,87.47
2023-01-29T04:31:55.143Z,87.58
2023-01-29T04:32:55.080Z,88.31
2023-01-29T04:33:55.055Z,88.87
2023-01-29T04:34:55.041Z,89.29
2023-01-29T04:35:55.031Z,89.29
2023-01-29T04:36:55.020Z,89.09
2023-01-29T04:37:55.022Z,88.98
2023-01-29T04:38:54.988Z,88.35
2023-01-29T04:39:54.976Z,88.14
2023-01-29T04:40:54.970Z,87.93
2023-01-29T04:41:54.951Z,87.93
2023-01-29T04:42:54.952Z,87.93
2023-01-29T04:43:54.928Z,88.24
2023-01-29T04:44:54.924Z,88.04
2023-01-29T04:45:54.901Z,88.18
2023-01-29T04:46:54.892Z,88.49
2023-01-29T04:47:54.896Z,88.81
2023-01-29T04:48:54.864Z,88.92
2023-01-29T04:49:54.849Z,88.71
2023-01-29T04:50:54.839Z,88.49
2023-01-29T04:51:54.827Z,88.39
2023-01-29T04:52:54.841Z,88.29
2023-01-29T04:53:54.800Z,88.29
2023-01-29T04:54:54.791Z,88.39
2023-01-29T04:55:54.779Z,88.29
2023-01-29T04:56:54.758Z,88.29
2023-01-29T04:57:54.762Z,88.35
2023-01-29T04:58:54.735Z,88.35
2023-01-29T04:59:54.724Z,88.04
2023-01-29T05:00:54.712Z,87.93
2023-01-29T05:01:54.734Z,87.79
2023-01-29T05:02:54.938Z,87.68
2023-01-29T05:03:54.670Z,87.58
2023-01-29T05:04:54.659Z,87.58
2023-01-29T05:05:54.643Z,87.68
2023-01-29T05:06:54.638Z,87.79
2023-01-29T05:07:54.649Z,87.89
2023-01-29T05:08:54.610Z,87.99
2023-01-29T05:09:54.590Z,87.89
2023-01-29T05:10:54.580Z,87.89
2023-01-29T05:11:54.572Z,87.89
2023-01-29T05:12:54.574Z,87.79
2023-01-29T05:13:54.545Z,87.74
2023-01-29T05:14:54.540Z,87.74
2023-01-29T05:15:54.533Z,87.64
2023-01-29T05:16:54.512Z,87.74
2023-01-29T05:17:54.506Z,87.64
2023-01-29T05:18:54.479Z,87.74
2023-01-29T05:19:54.463Z,88.42
2023-01-29T05:20:54.452Z,88.62
2023-01-29T05:21:54.445Z,89.09
2023-01-29T05:22:54.445Z,89.09
2023-01-29T05:23:54.422Z,89.19
2023-01-29T05:24:54.405Z,89.19
2023-01-29T05:25:54.392Z,89.09
2023-01-29T05:26:54.380Z,89.19
2023-01-29T05:27:54.399Z,89.19
2023-01-29T05:28:56.165Z,88.94
2023-01-29T05:29:54.340Z,88.62
2023-01-29T05:30:54.369Z,88.77
2023-01-29T05:31:54.380Z,88.77
2023-01-29T05:32:54.322Z,88.77
2023-01-29T05:33:54.286Z,88.46
2023-01-29T05:34:54.277Z,88.56
2023-01-29T05:35:54.275Z,88.35
2023-01-29T05:36:54.269Z,88.67
2023-01-29T05:37:54.261Z,88.87
2023-01-29T05:38:54.228Z,88.56
2023-01-29T05:39:54.216Z,88.67
2023-01-29T05:40:54.200Z,89.23
2023-01-29T05:41:54.201Z,89.02
2023-01-29T05:42:54.178Z,89.40
2023-01-29T05:43:54.180Z,89.40
2023-01-29T05:44:54.192Z,89.40
2023-01-29T05:45:54.138Z,89.29
2023-01-29T05:46:54.199Z,89.09
2023-01-29T05:47:54.113Z,89.09
2023-01-29T05:48:54.119Z,88.46
2023-01-29T05:49:54.093Z,88.35
2023-01-29T05:50:54.080Z,88.24
2023-01-29T05:51:54.103Z,88.10
2023-01-29T05:52:54.049Z,87.99
2023-01-29T05:53:54.055Z,87.89
2023-01-29T05:54:54.022Z,87.58
2023-01-29T05:55:54.012Z,87.05
2023-01-29T05:56:54.008Z,86.95
2023-01-29T05:57:53.990Z,86.74
2023-01-29T05:58:53.988Z,86.53
2023-01-29T05:59:53.960Z,86.22
2023-01-29T06:00:53.947Z,86.11
2023-01-29T06:01:53.979Z,86.11
2023-01-29T06:02:54.043Z,85.80
2023-01-29T06:03:53.940Z,85.90
2023-01-29T06:04:53.898Z,86.22
2023-01-29T06:05:53.887Z,86.32
2023-01-29T06:06:53.873Z,86.00
2023-01-29T06:07:53.871Z,86.00
2023-01-29T06:08:53.867Z,86.00
2023-01-29T06:09:53.845Z,86.32
2023-01-29T06:10:53.825Z,86.95
2023-01-29T06:11:53.824Z,87.26
2023-01-29T06:12:53.823Z,87.37
2023-01-29T06:13:53.803Z,87.43
2023-01-29T06:14:53.793Z,87.58
2023-01-29T06:15:53.852Z,87.47
2023-01-29T06:16:53.743Z,87.37
2023-01-29T06:17:53.735Z,87.23
2023-01-29T06:18:53.734Z,87.12
2023-01-29T06:19:53.712Z,87.12
2023-01-29T06:20:53.712Z,87.23
2023-01-29T06:21:53.680Z,87.23
2023-01-29T06:22:53.687Z,87.23
2023-01-29T06:23:53.840Z,87.23
2023-01-29T06:24:53.651Z,87.68
2023-01-29T06:25:53.638Z,88.10
2023-01-29T06:26:53.634Z,88.06
2023-01-29T06:27:53.622Z,88.06
2023-01-29T06:28:53.618Z,87.96
2023-01-29T06:29:53.600Z,87.74
2023-01-29T06:30:53.625Z,87.64
2023-01-29T06:31:53.648Z,87.54
2023-01-29T06:32:53.549Z,87.26
2023-01-29T06:33:53.570Z,87.47
2023-01-29T06:34:53.520Z,87.68
2023-01-29T06:35:53.505Z,87.79
2023-01-29T06:36:53.498Z,87.99
2023-01-29T06:37:53.491Z,88.21
2023-01-29T06:38:53.490Z,88.21
2023-01-29T06:39:53.461Z,88.42
2023-01-29T06:40:53.451Z,88.42
2023-01-29T06:41:53.431Z,88.42
2023-01-29T06:42:53.418Z,88.42
2023-01-29T06:43:53.467Z,88.52
2023-01-29T06:44:53.393Z,88.69
2023-01-29T06:45:53.413Z,88.94
2023-01-29T06:46:53.368Z,89.15
2023-01-29T06:47:53.378Z,89.36
2023-01-29T06:48:53.361Z,88.73
2023-01-29T06:49:53.336Z,88.31
2023-01-29T06:50:53.327Z,88.24
2023-01-29T06:51:53.319Z,88.24
2023-01-29T06:52:53.291Z,88.24
2023-01-29T06:53:53.296Z,88.46
2023-01-29T06:54:53.309Z,89.09
2023-01-29T06:55:53.254Z,89.09
2023-01-29T06:56:53.244Z,88.98
2023-01-29T06:57:53.227Z,88.98
2023-01-29T06:58:53.231Z,89.09
2023-01-29T06:59:53.213Z,89.29
2023-01-29T07:00:53.255Z,89.40
2023-01-29T07:01:53.252Z,89.61
2023-01-29T07:02:53.193Z,88.87
2023-01-29T07:03:53.180Z,88.87
2023-01-29T07:04:53.147Z,88.98
2023-01-29T07:05:53.133Z,88.98
2023-01-29T07:06:53.130Z,88.77
2023-01-29T07:07:53.112Z,88.67
2023-01-29T07:08:53.124Z,88.46
2023-01-29T07:09:53.082Z,88.24
2023-01-29T07:10:53.067Z,88.14
2023-01-29T07:11:53.050Z,88.10
2023-01-29T07:12:53.042Z,87.79
2023-01-29T07:13:53.029Z,87.58
2023-01-29T07:14:53.038Z,87.37
2023-01-29T07:15:53.015Z,87.16
2023-01-29T07:16:52.992Z,86.91
2023-01-29T07:17:52.992Z,86.91
2023-01-29T07:18:52.972Z,86.91
2023-01-29T07:19:52.971Z,87.01
2023-01-29T07:20:52.940Z,87.01
2023-01-29T07:21:52.934Z,87.12
2023-01-29T07:22:52.931Z,87.12
2023-01-29T07:23:52.909Z,87.37
2023-01-29T07:24:52.914Z,87.47
2023-01-29T07:25:52.878Z,87.68
2023-01-29T07:26:52.868Z,87.79
2023-01-29T07:27:52.849Z,87.79
2023-01-29T07:28:52.845Z,87.96
2023-01-29T07:29:52.839Z,87.74
2023-01-29T07:30:52.819Z,87.74
2023-01-29T07:31:52.947Z,87.64
2023-01-29T07:32:52.788Z,87.64
2023-01-29T07:33:52.783Z,87.54
2023-01-29T07:34:52.776Z,87.43
2023-01-29T07:35:52.752Z,87.43
2023-01-29T07:36:52.735Z,87.43
2023-01-29T07:37:52.724Z,87.54
2023-01-29T07:38:52.737Z,87.26
2023-01-29T07:39:52.710Z,86.95
2023-01-29T07:40:52.705Z,87.05
2023-01-29T07:41:52.668Z,86.63
2023-01-29T07:42:52.657Z,86.49
2023-01-29T07:43:52.649Z,86.49
2023-01-29T07:44:52.650Z,86.53
2023-01-29T07:45:52.784Z,86.85
2023-01-29T07:46:52.624Z,87.37
2023-01-29T07:47:52.623Z,86.74
2023-01-29T07:48:52.614Z,86.63
2023-01-29T07:49:52.596Z,86.32
2023-01-29T07:50:52.556Z,86.43
2023-01-29T07:51:52.553Z,86.43
2023-01-29T07:52:52.536Z,86.18
2023-01-29T07:53:52.522Z,86.18
2023-01-29T07:54:52.524Z,86.70
2023-01-29T07:55:52.501Z,86.49
2023-01-29T07:56:52.486Z,86.80
2023-01-29T07:57:52.467Z,85.13
2023-01-29T07:58:52.455Z,84.39
2023-01-29T07:59:52.457Z,85.13
2023-01-29T08:00:52.465Z,83.83
2023-01-29T08:01:52.479Z,84.15
2023-01-29T08:02:52.403Z,84.32
2023-01-29T08:03:52.400Z,84.00
2023-01-29T08:04:52.394Z,84.00
2023-01-29T08:05:52.371Z,83.69
2023-01-29T08:06:52.357Z,83.34
2023-01-29T08:08:05.822Z,83.34
2023-01-29T08:08:53.332Z,82.89
2023-01-29T08:09:52.333Z,82.26
2023-01-29T08:10:52.302Z,82.05
2023-01-29T08:11:52.289Z,81.11
2023-01-29T08:12:52.277Z,81.11
2023-01-29T08:13:52.319Z,80.58
2023-01-29T08:14:52.269Z,80.90
2023-01-29T08:15:52.237Z,81.07
2023-01-29T08:16:52.268Z,80.76
2023-01-29T08:17:57.795Z,80.65
2023-01-29T08:18:52.203Z,79.82
2023-01-29T08:19:52.209Z,78.88
2023-01-29T08:20:52.884Z,78.88
2023-01-29T08:21:52.174Z,78.74
2023-01-29T08:22:52.147Z,78.46
2023-01-29T08:23:52.134Z,78.84
2023-01-29T08:24:53.983Z,78.46
2023-01-29T08:25:53.139Z,78.74
2023-01-29T08:26:52.105Z,78.88
2023-01-29T08:27:52.087Z,79.15
2023-01-29T08:28:52.076Z,78.63
2023-01-29T08:29:52.067Z,79.26
2023-01-29T08:30:52.089Z,79.36
2023-01-29T08:31:52.073Z,79.57
2023-01-29T08:32:52.020Z,79.29
2023-01-29T08:33:52.005Z,79.82
2023-01-29T08:34:51.991Z,80.24
2023-01-29T08:35:52.003Z,80.44
2023-01-29T08:36:51.968Z,79.50
2023-01-29T08:37:51.963Z,79.61
2023-01-29T08:38:51.943Z,79.68
2023-01-29T08:39:51.929Z,79.36
2023-01-29T08:40:51.930Z,79.68
2023-01-29T08:41:51.910Z,79.47
2023-01-29T08:42:51.895Z,79.43
2023-01-29T08:43:51.886Z,78.70
2023-01-29T08:44:51.867Z,78.28
2023-01-29T08:45:51.874Z,77.66
2023-01-29T08:46:51.841Z,78.21
2023-01-29T08:47:51.832Z,78.63
2023-01-29T08:48:51.825Z,78.49
2023-01-29T08:49:51.800Z,78.45
2023-01-29T08:50:51.802Z,77.94
2023-01-29T08:51:51.783Z,77.80
2023-01-29T08:52:51.765Z,77.80
2023-01-29T08:53:51.749Z,77.69
2023-01-29T08:54:51.738Z,77.27
2023-01-29T08:55:51.737Z,76.86
2023-01-29T08:56:51.713Z,77.27
2023-01-29T08:57:51.709Z,77.10
2023-01-29T08:58:51.694Z,77.51
2023-01-29T08:59:51.676Z,77.76
2023-01-29T09:00:51.716Z,77.76
2023-01-29T09:01:51.647Z,77.14
2023-01-29T09:02:51.630Z,77.34
2023-01-29T09:03:51.629Z,77.34
2023-01-29T09:04:51.613Z,77.55
2023-01-29T09:05:51.619Z,78.18
2023-01-29T09:06:51.583Z,78.07
2023-01-29T09:07:53.320Z,78.49
2023-01-29T09:08:51.559Z,78.28
2023-01-29T09:09:51.547Z,78.07
2023-01-29T09:10:51.551Z,77.69
2023-01-29T09:11:51.516Z,77.59
2023-01-29T09:12:51.522Z,77.90
2023-01-29T09:13:51.498Z,77.38
2023-01-29T09:14:51.473Z,77.59
2023-01-29T09:15:51.483Z,77.69
2023-01-29T09:16:51.493Z,78.00
2023-01-29T09:17:51.436Z,78.00
2023-01-29T09:18:51.431Z,78.63
2023-01-29T09:19:51.423Z,78.74
2023-01-29T09:20:51.422Z,78.53
2023-01-29T09:21:51.392Z,78.21
2023-01-29T09:22:51.383Z,78.42
2023-01-29T09:23:51.368Z,78.21
2023-01-29T09:24:51.348Z,78.42
2023-01-29T09:25:51.353Z,78.07
2023-01-29T09:26:51.323Z,78.00
2023-01-29T09:27:51.314Z,78.28
2023-01-29T09:28:51.300Z,78.39
2023-01-29T09:29:51.290Z,78.49
2023-01-29T09:30:51.358Z,78.59
2023-01-29T09:31:51.332Z,78.70
2023-01-29T09:32:54.161Z,78.91
2023-01-29T09:33:51.234Z,79.43
2023-01-29T09:34:51.222Z,79.15
2023-01-29T09:35:51.221Z,78.94
2023-01-29T09:36:51.193Z,78.94
2023-01-29T09:37:51.198Z,79.01
2023-01-29T09:38:51.178Z,79.11
2023-01-29T09:39:51.157Z,79.01
2023-01-29T09:40:51.158Z,78.70
2023-01-29T09:41:51.150Z,78.07
2023-01-29T09:42:51.115Z,78.07
2023-01-29T09:43:51.105Z,77.76
2023-01-29T09:44:51.148Z,77.94
2023-01-29T09:45:51.181Z,77.66
2023-01-29T09:46:51.097Z,77.72
2023-01-29T09:47:51.059Z,77.51
2023-01-29T09:48:51.041Z,77.45
2023-01-29T09:49:51.029Z,77.45
2023-01-29T09:50:51.012Z,77.69
2023-01-29T09:51:51.017Z,78.11
2023-01-29T09:52:50.993Z,78.42
2023-01-29T09:53:51.012Z,78.28
2023-01-29T09:54:50.968Z,78.18
2023-01-29T09:55:50.952Z,77.66
2023-01-29T09:56:50.965Z,77.76
2023-01-29T09:57:50.924Z,77.76
2023-01-29T09:58:50.917Z,78.07
2023-01-29T09:59:50.908Z,78.28
2023-01-29T10:00:50.884Z,78.28
2023-01-29T10:01:51.004Z,78.28
2023-01-29T10:02:50.857Z,78.39
2023-01-29T10:03:50.850Z,78.49
2023-01-29T10:04:50.917Z,78.66
2023-01-29T10:05:50.831Z,78.56
2023-01-29T10:06:50.830Z,77.97
2023-01-29T10:07:50.908Z,77.83
2023-01-29T10:08:50.781Z,77.62
2023-01-29T10:09:50.772Z,77.72
2023-01-29T10:10:50.751Z,77.72
2023-01-29T10:11:50.763Z,76.89
2023-01-29T10:12:50.731Z,76.79
2023-01-29T10:13:50.714Z,76.68
2023-01-29T10:14:50.714Z,77.24
2023-01-29T10:15:50.694Z,76.92
2023-01-29T10:16:50.768Z,76.82
2023-01-29T10:17:50.680Z,76.82
2023-01-29T10:18:50.658Z,76.51
2023-01-29T10:19:50.645Z,76.16
2023-01-29T10:20:50.624Z,76.06
2023-01-29T10:21:50.634Z,75.63
2023-01-29T10:22:50.618Z,75.63
2023-01-29T10:23:50.593Z,75.85
2023-01-29T10:24:50.576Z,76.06
2023-01-29T10:25:50.564Z,76.37
2023-01-29T10:26:50.570Z,75.85
2023-01-29T10:27:50.538Z,76.47
2023-01-29T10:28:50.524Z,76.37
2023-01-29T10:29:50.518Z,75.81
2023-01-29T10:30:50.632Z,75.57
2023-01-29T10:31:50.572Z,75.36
2023-01-29T10:32:50.485Z,75.22
2023-01-29T10:34:01.614Z,74.91
2023-01-29T10:34:51.445Z,74.63
2023-01-29T10:35:50.456Z,74.63
2023-01-29T10:36:50.424Z,75.18
2023-01-29T10:37:50.461Z,75.01
2023-01-29T10:38:50.396Z,75.12
2023-01-29T10:39:50.383Z,75.18
2023-01-29T10:40:50.383Z,75.18
2023-01-29T10:41:50.967Z,74.98
2023-01-29T10:42:50.358Z,75.15
2023-01-29T10:43:50.333Z,75.26
2023-01-29T10:44:50.320Z,75.71
2023-01-29T10:45:50.309Z,75.08
2023-01-29T10:46:50.303Z,75.40
2023-01-29T10:47:50.429Z,75.50
2023-01-29T10:48:50.285Z,75.15
2023-01-29T10:49:50.253Z,75.15
2023-01-29T10:50:50.245Z,75.18
2023-01-29T10:51:50.236Z,75.63
2023-01-29T10:52:50.237Z,76.47
2023-01-29T10:53:50.221Z,77.00
2023-01-29T10:54:50.196Z,76.79
2023-01-29T10:55:50.184Z,76.16
2023-01-29T10:56:50.170Z,76.06
2023-01-29T10:57:50.185Z,75.85
2023-01-29T10:58:50.143Z,75.85
2023-01-29T10:59:50.132Z,76.23
2023-01-29T11:00:50.131Z,76.20
2023-01-29T11:01:50.189Z,75.98
2023-01-29T11:02:50.231Z,75.78
2023-01-29T11:03:50.079Z,75.57
2023-01-29T11:04:50.070Z,75.64
2023-01-29T11:05:50.071Z,75.22
2023-01-29T11:06:50.047Z,75.22
2023-01-29T11:07:50.067Z,74.66
2023-01-29T11:08:50.017Z,73.90
2023-01-29T11:09:50.009Z,74.49
2023-01-29T11:10:49.995Z,74.70
2023-01-29T11:11:49.992Z,74.35
2023-01-29T11:12:49.982Z,73.83
2023-01-29T11:13:49.963Z,73.28
2023-01-29T11:14:49.942Z,73.03
2023-01-29T11:15:49.989Z,72.10
2023-01-29T11:16:49.933Z,72.34
2023-01-29T11:17:49.915Z,72.69
2023-01-29T11:18:49.888Z,72.89
2023-01-29T11:19:49.887Z,72.89
2023-01-29T11:20:49.862Z,73.21
2023-01-29T11:21:49.851Z,73.24
2023-01-29T11:22:49.851Z,73.80
2023-01-29T11:23:49.828Z,74.42
2023-01-29T11:24:49.816Z,74.35
2023-01-29T11:25:49.798Z,73.56
2023-01-29T11:26:49.782Z,72.17
2023-01-29T11:27:49.787Z,71.97
2023-01-29T11:28:49.760Z,69.66
2023-01-29T11:29:49.743Z,67.36
2023-01-29T11:30:49.802Z,64.45
2023-01-29T11:31:49.755Z,61.47
2023-01-29T11:32:49.715Z,60.28
2023-01-29T11:33:49.692Z,62.51
2023-01-29T11:34:49.674Z,61.79
2023-01-29T11:35:49.662Z,62.42
2023-01-29T11:36:49.652Z,64.17
2023-01-29T11:37:49.661Z,65.75
2023-01-29T11:38:49.642Z,66.82
2023-01-29T11:39:49.609Z,67.40
2023-01-29T11:40:49.629Z,67.85
2023-01-29T11:41:49.585Z,68.60
2023-01-29T11:42:49.572Z,69.22
2023-01-29T11:43:49.573Z,70.43
2023-01-29T11:44:49.550Z,70.54
2023-01-29T11:45:49.539Z,70.20
2023-01-29T11:46:49.597Z,69.96
2023-01-29T11:47:49.519Z,69.48
2023-01-29T11:48:49.515Z,68.44
2023-01-29T11:49:49.487Z,68.26
2023-01-29T11:50:49.462Z,69.06
2023-01-29T11:51:49.462Z,68.85
2023-01-29T11:52:49.437Z,69.17
2023-01-29T11:53:49.457Z,69.13
2023-01-29T11:54:49.415Z,69.24
2023-01-29T11:55:51.069Z,68.82
2023-01-29T11:56:49.385Z,68.96
2023-01-29T11:57:49.375Z,68.72
2023-01-29T11:58:49.374Z,69.34
2023-01-29T11:59:49.343Z,69.17
2023-01-29T12:00:49.334Z,68.85
2023-01-29T12:01:49.326Z,69.17
2023-01-29T12:02:49.305Z,69.43
2023-01-29T12:03:49.388Z,70.06
2023-01-29T12:04:49.283Z,69.96
2023-01-29T12:05:49.290Z,70.27
2023-01-29T12:06:49.264Z,69.99
2023-01-29T12:07:49.255Z,70.33
2023-01-29T12:08:49.247Z,70.54
2023-01-29T12:09:49.215Z,71.17
2023-01-29T12:10:49.226Z,70.58
2023-01-29T12:11:49.191Z,69.71
2023-01-29T12:12:49.174Z,69.17
2023-01-29T12:13:49.180Z,68.27
2023-01-29T12:14:49.149Z,67.79
2023-01-29T12:15:49.345Z,67.24
2023-01-29T12:16:49.125Z,66.89
2023-01-29T12:17:49.114Z,66.86
2023-01-29T12:18:49.108Z,65.77
2023-01-29T12:19:49.086Z,64.25
2023-01-29T12:20:49.090Z,63.69
2023-01-29T12:21:49.071Z,65.65
2023-01-29T12:22:49.050Z,66.85
2023-01-29T12:23:49.043Z,68.51
2023-01-29T12:24:49.015Z,68.51
2023-01-29T12:25:48.997Z,67.76
2023-01-29T12:26:49.001Z,66.78
2023-01-29T12:27:48.972Z,66.82
2023-01-29T12:28:48.989Z,67.27
2023-01-29T12:29:48.947Z,67.55
2023-01-29T12:30:49.014Z,66.99
2023-01-29T12:31:49.018Z,67.06
2023-01-29T12:32:48.917Z,67.36
2023-01-29T12:33:48.917Z,69.05
2023-01-29T12:34:48.886Z,70.43
2023-01-29T12:35:48.871Z,71.27
2023-01-29T12:36:48.861Z,70.58
2023-01-29T12:37:48.842Z,70.41
2023-01-29T12:38:48.854Z,69.20
2023-01-29T12:39:48.816Z,69.71
2023-01-29T12:40:48.804Z,69.92
2023-01-29T12:41:48.796Z,69.71
2023-01-29T12:42:48.777Z,69.82
2023-01-29T12:43:48.771Z,70.41
2023-01-29T12:44:48.789Z,69.76
2023-01-29T12:45:48.736Z,68.85
2023-01-29T12:46:48.841Z,69.71
2023-01-29T12:47:48.719Z,69.85
2023-01-29T12:48:48.718Z,70.06
2023-01-29T12:49:48.709Z,70.03
2023-01-29T12:50:48.675Z,70.06
2023-01-29T12:51:48.664Z,70.58
2023-01-29T12:52:48.657Z,70.72